Time;durP1;ratioP1;P1;durP2;ratioP2;P2;SDS_P1;SDS_P2;PMS_P1;PMS_P2;Temp;Humidity;BMP_temperature;BMP_pressure;BME280_temperature;BME280_humidity;BME280_pressure;Samples;Min_cycle;Max_cycle;Signal;HPM_P1;HPM_P2
2023/05/13 00:01:37;;;;;;;17.90;10.35;;;13.50;55.50;;;;;;5060073;28;20396;-85
2023/05/13 00:04:04;;;;;;;12.00;7.28;;;13.40;55.00;;;;;;5067508;28;20028;-84
2023/05/13 00:06:31;;;;;;;18.67;8.70;;;13.40;55.30;;;;;;5057918;28;20076;-83
2023/05/13 00:08:57;;;;;;;13.95;7.72;;;13.40;54.90;;;;;;5073702;28;20500;-86
2023/05/13 00:11:23;;;;;;;12.50;8.00;;;13.40;55.10;;;;;;5074769;28;20025;-84
2023/05/13 00:13:49;;;;;;;13.75;8.55;;;13.40;55.20;;;;;;5078055;28;20046;-84
2023/05/13 00:16:15;;;;;;;13.20;7.47;;;13.40;55.10;;;;;;5081709;28;20099;-85
2023/05/13 00:18:41;;;;;;;17.92;7.43;;;13.40;55.10;;;;;;5081109;28;20121;-85
2023/05/13 00:21:07;;;;;;;18.77;7.03;;;13.30;55.30;;;;;;5110799;28;20147;-85
2023/05/13 00:23:32;;;;;;;14.65;7.95;;;13.30;55.00;;;;;;5105070;28;20032;-82
2023/05/13 00:25:59;;;;;;;15.35;7.88;;;13.40;54.90;;;;;;5090241;28;20070;-83
2023/05/13 00:28:25;;;;;;;15.00;7.70;;;13.50;54.90;;;;;;5108655;28;20024;-84
2023/05/13 00:30:51;;;;;;;12.15;7.57;;;13.50;54.90;;;;;;5102663;28;20016;-84
2023/05/13 00:33:17;;;;;;;12.73;7.40;;;13.50;55.00;;;;;;5084345;28;20032;-84
2023/05/13 00:35:43;;;;;;;18.63;7.57;;;13.50;54.90;;;;;;5097611;28;20024;-84
2023/05/13 00:38:09;;;;;;;11.57;7.32;;;13.40;55.00;;;;;;5096888;28;20039;-84
2023/05/13 00:40:38;;;;;;;11.15;7.47;;;13.40;55.50;;;;;;5074855;28;20032;-85
2023/05/13 00:43:05;;;;;;;14.18;7.95;;;13.30;55.50;;;;;;5097985;28;20026;-84
2023/05/13 00:45:31;;;;;;;13.52;7.65;;;13.30;55.40;;;;;;5094751;28;20020;-85
2023/05/13 00:47:57;;;;;;;13.15;6.82;;;13.30;56.10;;;;;;5076216;28;20031;-85
2023/05/13 00:50:24;;;;;;;13.68;8.15;;;13.30;55.60;;;;;;5092307;28;20474;-84
2023/05/13 00:52:50;;;;;;;12.07;7.50;;;13.30;55.50;;;;;;5094149;28;20076;-83
2023/05/13 00:55:16;;;;;;;22.80;7.78;;;13.30;55.50;;;;;;5094287;28;20477;-84
2023/05/13 00:57:42;;;;;;;14.55;7.43;;;13.30;55.60;;;;;;5092413;28;20012;-84
2023/05/13 01:00:09;;;;;;;12.63;7.47;;;13.30;55.70;;;;;;5093581;28;20016;-84
2023/05/13 01:03:00;;;;;;;12.80;7.77;;;13.30;55.80;;;;;;5091276;28;20088;-85
2023/05/13 01:05:44;;;;;;;13.15;7.85;;;13.20;56.30;;;;;;5100280;28;20024;-84
2023/05/13 01:08:28;;;;;;;11.00;6.65;;;13.20;56.30;;;;;;5104758;28;20040;-85
2023/05/13 01:11:02;;;;;;;10.70;6.68;;;13.10;56.50;;;;;;5097989;28;20030;-87
2023/05/13 01:13:35;;;;;;;14.77;7.78;;;13.10;56.80;;;;;;5089298;28;20021;-86
2023/05/13 01:16:17;;;;;;;16.38;8.57;;;13.00;57.20;;;;;;5101650;28;20020;-85
2023/05/13 01:18:48;;;;;;;10.68;7.68;;;12.90;57.50;;;;;;5102871;28;20028;-85
2023/05/13 01:21:15;;;;;;;18.90;8.25;;;12.80;57.80;;;;;;5092847;28;20095;-86
2023/05/13 01:23:41;;;;;;;14.05;8.48;;;12.80;58.20;;;;;;5105819;28;20024;-87
2023/05/13 01:26:07;;;;;;;12.95;8.52;;;12.70;58.30;;;;;;5098980;28;20032;-87
2023/05/13 01:28:33;;;;;;;16.58;8.35;;;12.70;58.60;;;;;;5083827;28;20027;-87
2023/05/13 01:30:59;;;;;;;13.20;8.60;;;12.70;58.60;;;;;;5088646;28;20724;-88
2023/05/13 01:33:26;;;;;;;15.38;8.05;;;;;;;;;;5102403;28;20028;-82
2023/05/13 01:35:52;;;;;;;14.77;7.63;;;;;;;;;;5089572;28;20099;-84
2023/05/13 01:38:19;;;;;;;10.63;8.18;;;;;;;;;;5080214;28;20400;-84
2023/05/13 01:40:46;;;;;;;;;;;;;;;;;;5091274;28;20020;-83
2023/05/13 01:43:12;;;;;;;18.77;10.07;;;;;;;;;;5085802;28;20356;-85
2023/05/13 01:45:38;;;;;;;11.57;8.88;;;;;;;;;;5074667;28;20116;-85
2023/05/13 01:48:05;;;;;;;17.70;8.45;;;;;;;;;;5091206;28;20024;-85
2023/05/13 01:50:31;;;;;;;19.25;8.35;;;;;;;;;;5091707;28;20385;-86
2023/05/13 01:52:57;;;;;;;17.50;8.93;;;;;;;;;;5084791;28;20122;-86
2023/05/13 01:55:23;;;;;;;13.68;8.50;;;;;;;;;;5094454;28;20076;-85
2023/05/13 01:57:49;;;;;;;21.92;9.48;;;;;;;;;;5094223;28;20043;-84
2023/05/13 02:00:16;;;;;;;15.48;7.78;;;;;;;;;;5094536;28;20024;-86
2023/05/13 02:02:43;;;;;;;15.63;8.35;;;;;;;;;;5077790;28;20111;-85
2023/05/13 02:05:09;;;;;;;19.17;10.70;;;;;;;;;;5086821;28;20485;-85
2023/05/13 02:07:35;;;;;;;19.10;9.60;;;;;;;;;;5054888;28;20105;-85
2023/05/13 02:10:01;;;;;;;18.17;8.55;;;;;;;;;;5064925;28;20082;-84
2023/05/13 02:12:28;;;;;;;19.77;8.95;;;;;;;;;;5078534;28;20025;-85
2023/05/13 02:14:54;;;;;;;14.75;8.60;;;;;;;;;;5076403;28;20024;-85
2023/05/13 02:17:21;;;;;;;14.60;8.82;;;;;;;;;;5073653;28;20099;-84
2023/05/13 02:19:47;;;;;;;14.95;8.32;;;;;;;;;;5080739;28;20068;-84
2023/05/13 02:22:13;;;;;;;14.10;8.40;;;;;;;;;;5082698;28;20017;-84
2023/05/13 02:24:40;;;;;;;16.00;9.02;;;;;;;;;;5075275;28;20037;-85
2023/05/13 02:27:06;;;;;;;20.00;8.48;;;;;;;;;;5072000;28;20029;-85
2023/05/13 02:29:33;;;;;;;14.00;8.80;;;;;;;;;;5073198;28;20029;-84
2023/05/13 02:31:59;;;;;;;15.88;9.48;;;;;;;;;;5072647;28;20738;-85
2023/05/13 02:34:25;;;;;;;15.88;8.07;;;;;;;;;;5070977;28;20024;-85
2023/05/13 02:36:51;;;;;;;16.63;7.90;;;;;;;;;;5071913;28;20112;-86
2023/05/13 02:39:18;;;;;;;11.40;8.77;;;;;;;;;;5075172;28;20036;-85
2023/05/13 02:41:44;;;;;;;15.13;8.98;;;;;;;;;;5055625;28;20066;-86
2023/05/13 02:44:10;;;;;;;18.55;8.45;;;;;;;;;;5070922;28;20029;-85
2023/05/13 02:46:36;;;;;;;16.33;9.18;;;;;;;;;;5071490;28;20021;-87
2023/05/13 02:49:03;;;;;;;13.43;8.45;;;;;;;;;;5073510;28;20374;-87
2023/05/13 02:51:29;;;;;;;12.98;7.47;;;;;;;;;;5076703;28;20548;-86
2023/05/13 02:53:55;;;;;;;11.68;7.70;;;;;;;;;;5072945;28;20389;-87
2023/05/13 02:56:21;;;;;;;17.70;8.27;;;;;;;;;;5071665;28;20024;-88
2023/05/13 02:58:48;;;;;;;18.67;8.23;;;;;;;;;;5076371;28;20036;-87
2023/05/13 03:01:14;;;;;;;14.57;7.55;;;;;;;;;;5082149;28;20021;-86
2023/05/13 03:03:40;;;;;;;10.18;7.85;;;;;;;;;;5096013;28;20031;-87
2023/05/13 03:06:07;;;;;;;10.35;7.80;;;;;;;;;;5083504;28;20041;-84
2023/05/13 03:08:33;;;;;;;14.18;7.22;;;;;;;;;;5086067;28;20032;-86
2023/05/13 03:10:59;;;;;;;11.70;7.07;;;;;;;;;;5100368;28;20022;-87
2023/05/13 03:13:25;;;;;;;13.70;8.00;;;;;;;;;;5101210;28;20016;-86
2023/05/13 03:15:51;;;;;;;11.35;7.35;;;;;;;;;;5098303;28;20115;-87
2023/05/13 03:18:17;;;;;;;14.73;8.15;;;;;;;;;;5108705;28;20035;-88
2023/05/13 03:20:45;;;;;;;11.73;7.03;;;;;;;;;;5080503;28;20028;-85
2023/05/13 03:23:11;;;;;;;11.68;7.63;;;;;;;;;;5096376;28;20646;-86
2023/05/13 03:25:37;;;;;;;14.40;7.97;;;;;;;;;;5087514;28;20028;-86
2023/05/13 03:28:03;;;;;;;11.77;7.63;;;;;;;;;;5083931;28;20020;-85
2023/05/13 03:30:29;;;;;;;14.18;7.47;;;;;;;;;;5078483;28;20017;-85
2023/05/13 03:32:56;;;;;;;15.40;7.78;;;;;;;;;;5096575;28;20031;-85
2023/05/13 03:35:22;;;;;;;13.83;7.03;;;;;;;;;;5105960;28;20012;-85
2023/05/13 03:37:49;;;;;;;14.13;7.90;;;;;;;;;;5088257;28;20268;-85
2023/05/13 03:40:17;;;;;;;14.23;8.23;;;;;;;;;;5097697;28;20507;-85
2023/05/13 03:42:43;;;;;;;11.75;7.03;;;;;;;;;;5080868;28;20027;-85
2023/05/13 03:45:10;;;;;;;15.80;7.70;;;;;;;;;;5091630;28;20025;-86
2023/05/13 03:47:38;;;;;;;11.73;7.28;;;;;;;;;;5086860;28;20027;-85
2023/05/13 03:50:04;;;;;;;13.45;8.18;;;;;;;;;;5096083;28;20031;-86
2023/05/13 03:52:30;;;;;;;7.53;6.63;;;;;;;;;;5097818;28;20024;-85
2023/05/13 03:54:56;;;;;;;14.55;7.38;;;;;;;;;;5093917;28;20024;-87
2023/05/13 03:57:23;;;;;;;12.35;7.05;;;;;;;;;;5102748;28;20052;-85
2023/05/13 03:59:49;;;;;;;13.02;6.65;;;;;;;;;;5098169;28;20160;-85
2023/05/13 04:02:15;;;;;;;11.60;6.93;;;;;;;;;;5097333;28;20016;-85
2023/05/13 04:04:41;;;;;;;12.15;7.85;;;;;;;;;;5113113;28;20031;-86
2023/05/13 04:07:07;;;;;;;21.65;8.32;;;;;;;;;;5084162;28;20052;-83
2023/05/13 04:09:33;;;;;;;12.25;7.07;;;;;;;;;;5095767;28;20016;-84
2023/05/13 04:11:59;;;;;;;16.02;6.63;;;;;;;;;;5077636;28;20023;-84
2023/05/13 04:14:25;;;;;;;13.25;8.00;;;;;;;;;;5095216;28;20016;-84
2023/05/13 04:16:52;;;;;;;12.82;7.53;;;;;;;;;;5094776;28;20034;-83
2023/05/13 04:19:18;;;;;;;14.65;7.35;;;;;;;;;;5076192;28;20237;-83
2023/05/13 04:21:44;;;;;;;10.85;6.65;;;;;;;;;;5094905;28;20021;-82
2023/05/13 04:24:10;;;;;;;13.60;6.82;;;;;;;;;;5094387;28;20431;-84
2023/05/13 04:26:37;;;;;;;11.75;6.95;;;;;;;;;;5094519;28;20024;-83
2023/05/13 04:29:03;;;;;;;9.45;6.53;;;;;;;;;;5073003;28;20407;-83
2023/05/13 04:31:29;;;;;;;15.90;7.10;;;;;;;;;;5093322;28;20056;-83
2023/05/13 04:33:56;;;;;;;11.07;6.30;;;;;;;;;;5094272;28;20544;-83
2023/05/13 04:36:22;;;;;;;16.15;6.70;;;;;;;;;;5089735;28;20020;-83
2023/05/13 04:38:48;;;;;;;14.57;6.55;;;;;;;;;;5089973;28;20059;-83
2023/05/13 04:41:14;;;;;;;13.73;6.60;;;;;;;;;;5094401;28;20020;-83
2023/05/13 04:43:41;;;;;;;11.43;6.57;;;;;;;;;;5077370;28;20052;-84
2023/05/13 04:46:07;;;;;;;12.13;6.93;;;;;;;;;;5095737;28;20047;-83
2023/05/13 04:48:33;;;;;;;15.52;7.28;;;;;;;;;;5091233;28;20012;-85
2023/05/13 04:50:59;;;;;;;15.15;6.68;;;;;;;;;;5076579;28;20028;-85
2023/05/13 04:53:25;;;;;;;11.45;7.00;;;;;;;;;;5079976;28;20020;-85
2023/05/13 04:55:56;;;;;;;13.45;6.47;;;;;;;;;;5113336;28;20058;-85
2023/05/13 04:58:22;;;;;;;13.90;6.93;;;;;;;;;;5107305;28;20024;-85
2023/05/13 05:00:48;;;;;;;10.25;6.38;;;;;;;;;;5100856;28;20131;-85
2023/05/13 05:03:14;;;;;;;11.25;5.68;;;;;;;;;;5103903;28;20023;-85
2023/05/13 05:05:40;;;;;;;11.70;6.40;;;;;;;;;;5111535;28;20032;-85
2023/05/13 05:08:07;;;;;;;13.35;6.25;;;;;;;;;;5103955;28;20075;-87
2023/05/13 05:10:33;;;;;;;10.35;5.85;;;;;;;;;;5105131;28;20416;-85
2023/05/13 05:12:59;;;;;;;14.65;6.25;;;;;;;;;;5081528;28;20465;-86
2023/05/13 05:15:25;;;;;;;13.85;6.05;;;;;;;;;;5096575;28;20457;-85
2023/05/13 05:17:51;;;;;;;11.52;5.88;;;;;;;;;;5099777;28;20099;-86
2023/05/13 05:20:17;;;;;;;13.07;6.53;;;12.70;58.50;;;;;;5084946;28;20040;-84
2023/05/13 05:22:43;;;;;;;15.23;6.22;;;25.30;37.50;;;;;;5096517;28;20081;-88
2023/05/13 05:25:10;;;;;;;15.20;6.45;;;25.50;37.00;;;;;;5106819;28;20032;-85
2023/05/13 05:27:36;;;;;;;9.65;5.65;;;26.10;36.60;;;;;;5079759;28;20031;-86
2023/05/13 05:30:02;;;;;;;13.43;5.90;;;26.70;35.90;;;;;;5078616;28;20024;-86
2023/05/13 05:32:28;;;;;;;14.63;4.90;;;27.30;35.20;;;;;;5105694;28;20032;-85
2023/05/13 05:34:54;;;;;;;12.18;5.70;;;27.60;34.70;;;;;;5088386;28;20122;-85
2023/05/13 05:37:20;;;;;;;19.35;5.88;;;28.00;34.20;;;;;;5095579;28;20024;-87
2023/05/13 05:40:01;;;;;;;9.27;5.22;;;28.50;33.70;;;;;;5105780;28;20043;-86
2023/05/13 05:42:27;;;;;;;13.13;5.40;;;29.00;33.00;;;;;;5084892;28;20032;-87
2023/05/13 05:44:53;;;;;;;13.55;5.03;;;29.10;32.30;;;;;;5086670;28;20444;-86
2023/05/13 05:47:19;;;;;;;14.85;5.18;;;29.00;32.20;;;;;;5089763;28;20035;-87
2023/05/13 05:49:45;;;;;;;13.40;5.57;;;29.40;32.00;;;;;;5101120;28;20112;-86
2023/05/13 05:52:12;;;;;;;11.02;5.00;;;29.90;31.60;;;;;;5097778;28;20103;-86
2023/05/13 05:54:46;;;;;;;12.93;5.65;;;30.50;31.70;;;;;;5097586;28;20032;-84
2023/05/13 05:57:12;;;;;;;13.25;3.75;;;31.30;30.70;;;;;;5097105;28;20016;-85
2023/05/13 05:59:44;;;;;;;10.38;4.10;;;32.30;29.70;;;;;;5106290;28;20024;-86
2023/05/13 06:02:10;;;;;;;8.75;4.13;;;32.90;29.60;;;;;;5076254;28;20029;-88
2023/05/13 06:04:50;;;;;;;9.35;3.83;;;32.90;29.20;;;;;;5094363;28;20028;-88
2023/05/13 06:07:31;;;;;;;8.90;3.63;;;33.00;28.60;;;;;;5113574;28;20032;-87
2023/05/13 06:10:12;;;;;;;9.88;3.55;;;32.70;28.50;;;;;;5113751;28;20038;-86
2023/05/13 06:12:54;;;;;;;13.70;3.50;;;32.50;28.40;;;;;;5090829;28;20112;-87
2023/05/13 06:15:27;;;;;;;6.68;3.45;;;32.30;28.30;;;;;;5084367;28;20032;-85
2023/05/13 06:17:53;;;;;;;13.07;3.53;;;32.20;28.40;;;;;;5090280;28;20533;-86
2023/05/13 06:20:19;;;;;;;7.73;3.37;;;32.10;28.00;;;;;;5101065;28;20107;-86
2023/05/13 06:22:45;;;;;;;13.80;3.40;;;31.80;28.10;;;;;;5090763;28;20020;-86
2023/05/13 06:25:11;;;;;;;6.67;3.73;;;31.50;28.00;;;;;;5076278;28;20024;-85
2023/05/13 06:27:37;;;;;;;8.63;2.97;;;31.70;28.00;;;;;;5093721;28;20377;-89
2023/05/13 06:30:03;;;;;;;7.70;3.40;;;31.70;27.70;;;;;;5075428;28;20012;-84
2023/05/13 06:32:29;;;;;;;8.32;3.53;;;31.50;27.90;;;;;;5093851;28;20022;-87
2023/05/13 06:34:55;;;;;;;8.83;3.47;;;31.60;28.20;;;;;;5077294;28;20028;-87
2023/05/13 06:37:20;;;;;;;7.33;2.73;;;32.10;28.10;;;;;;5095107;28;20016;-87
2023/05/13 06:40:03;;;;;;;6.00;2.97;;;32.60;27.30;;;;;;5099825;28;20043;-87
2023/05/13 06:42:29;;;;;;;6.43;3.22;;;32.50;27.40;;;;;;5069825;28;20028;-87
2023/05/13 06:44:54;;;;;;;5.50;3.47;;;32.80;27.30;;;;;;5100830;28;20055;-85
2023/05/13 06:47:20;;;;;;;6.00;3.27;;;32.80;27.10;;;;;;5089346;28;20060;-85
2023/05/13 06:49:46;;;;;;;8.27;3.53;;;33.00;27.40;;;;;;5106874;28;20062;-89
2023/05/13 06:52:12;;;;;;;9.23;3.67;;;;;;;;;;5115190;28;20067;-87
2023/05/13 06:54:39;;;;;;;9.73;3.70;;;34.60;26.50;;;;;;5106551;28;20084;-88
2023/05/13 06:57:06;;;;;;;9.52;3.47;;;35.30;26.80;;;;;;5099399;28;20468;-84
2023/05/13 06:59:32;;;;;;;10.48;3.50;;;35.60;26.60;;;;;;5082738;28;20040;-88
2023/05/13 07:01:58;;;;;;;7.00;3.38;;;35.60;26.80;;;;;;5087890;28;20024;-88
2023/05/13 07:04:24;;;;;;;6.30;3.50;;;35.90;26.40;;;;;;5076644;28;20119;-88
2023/05/13 07:06:50;;;;;;;6.43;3.33;;;35.20;26.20;;;;;;5067138;28;20044;-86
2023/05/13 07:09:16;;;;;;;11.88;3.42;;;34.20;27.00;;;;;;5096877;28;20028;-87
2023/05/13 07:11:42;;;;;;;6.65;3.15;;;34.30;26.90;;;;;;5081202;28;20020;-87
2023/05/13 07:14:08;;;;;;;8.63;3.35;;;34.20;26.80;;;;;;5096336;28;20036;-86
2023/05/13 07:16:34;;;;;;;6.87;2.90;;;33.70;27.00;;;;;;5084979;28;20028;-87
2023/05/13 07:19:00;;;;;;;10.83;3.90;;;33.60;27.10;;;;;;5074403;28;20044;-87
2023/05/13 07:21:26;;;;;;;7.10;3.33;;;33.50;27.20;;;;;;5104049;28;20488;-87
2023/05/13 07:23:52;;;;;;;9.57;3.63;;;33.90;27.10;;;;;;5079663;28;20069;-89
2023/05/13 07:26:20;;;;;;;8.07;3.17;;;34.20;26.90;;;;;;5099511;28;20024;-89
2023/05/13 07:28:46;;;;;;;7.80;3.15;;;34.60;26.90;;;;;;5105103;28;20024;-90
2023/05/13 07:31:12;;;;;;;8.48;3.42;;;35.10;26.70;;;;;;5101793;28;20032;-89
2023/05/13 07:33:38;;;;;;;7.72;3.50;;;35.40;26.60;;;;;;5104753;28;20073;-85
2023/05/13 07:36:05;;;;;;;10.15;3.75;;;35.60;26.50;;;;;;5091000;28;20015;-86
2023/05/13 07:38:31;;;;;;;10.20;3.10;;;35.60;26.20;;;;;;5102570;28;20604;-89
2023/05/13 07:40:57;;;;;;;5.88;3.35;;;34.90;26.30;;;;;;5093377;28;20029;-84
2023/05/13 07:43:23;;;;;;;4.82;3.03;;;34.60;26.60;;;;;;5080895;28;20511;-84
2023/05/13 07:45:50;;;;;;;8.93;3.53;;;34.80;26.50;;;;;;5098422;28;20103;-83
2023/05/13 07:48:16;;;;;;;9.25;3.78;;;34.50;26.30;;;;;;5096005;28;20373;-88
2023/05/13 07:50:43;;;;;;;;;;;33.90;26.20;;;;;;5069595;28;20020;-83
2023/05/13 07:53:09;;;;;;;10.40;3.45;;;33.40;26.70;;;;;;5093864;28;19904;-83
2023/05/13 07:55:35;;;;;;;12.02;3.65;;;32.90;26.70;;;;;;5095467;28;20071;-85
2023/05/13 07:58:02;;;;;;;11.65;3.38;;;32.60;26.80;;;;;;5077524;28;20431;-85
2023/05/13 08:00:28;;;;;;;9.40;3.22;;;32.60;26.80;;;;;;5095564;28;20358;-86
2023/05/13 08:02:54;;;;;;;11.20;3.63;;;33.20;26.60;;;;;;5086559;28;20032;-87
2023/05/13 08:05:20;;;;;;;10.05;3.47;;;33.80;26.30;;;;;;5097180;28;20035;-87
2023/05/13 08:07:46;;;;;;;8.43;4.03;;;34.10;26.10;;;;;;5097227;28;20048;-87
2023/05/13 08:10:12;;;;;;;8.60;3.37;;;34.10;26.30;;;;;;5097280;28;20081;-89
2023/05/13 08:12:39;;;;;;;7.43;4.07;;;34.20;26.10;;;;;;5099152;28;20012;-86
2023/05/13 08:15:06;;;;;;;9.60;4.40;;;34.20;26.10;;;;;;5077606;28;20036;-83
2023/05/13 08:17:32;;;;;;;23.25;5.30;;;34.50;26.50;;;;;;5096355;28;20043;-83
2023/05/13 08:19:58;;;;;;;13.57;5.43;;;35.10;25.70;;;;;;5090118;28;20041;-81
2023/05/13 08:22:25;;;;;;;10.85;2.92;;;35.30;25.70;;;;;;5090945;28;20024;-82
2023/05/13 08:24:51;;;;;;;12.80;3.00;;;35.10;25.50;;;;;;5093848;28;20020;-84
2023/05/13 08:27:17;;;;;;;8.95;3.33;;;34.60;25.50;;;;;;5091556;28;20035;-80
2023/05/13 08:29:42;;;;;;;7.40;3.03;;;34.50;25.80;;;;;;5094231;28;20078;-81
2023/05/13 08:32:09;;;;;;;19.10;3.72;;;34.70;25.80;;;;;;5076126;28;20016;-78
2023/05/13 08:34:35;;;;;;;7.88;3.22;;;34.60;25.60;;;;;;5094436;28;20032;-80
2023/05/13 08:37:01;;;;;;;7.85;3.08;;;35.10;25.60;;;;;;5084218;28;20025;-80
2023/05/13 08:39:27;;;;;;;10.85;3.13;;;35.30;25.40;;;;;;5092053;28;20084;-80
2023/05/13 08:41:56;;;;;;;7.22;2.95;;;35.50;25.50;;;;;;5094434;28;20104;-80
2023/05/13 08:44:27;;;;;;;6.60;3.35;;;36.80;25.10;;;;;;5090846;28;20477;-80
2023/05/13 08:47:10;;;;;;;10.48;3.08;;;37.10;25.20;;;;;;5092814;28;20016;-80
2023/05/13 08:49:37;;;;;;;7.78;3.00;;;37.50;24.60;;;;;;5075566;28;20385;-79
2023/05/13 08:52:03;;;;;;;11.27;3.75;;;36.20;24.70;;;;;;5085545;28;20012;-80
2023/05/13 08:54:30;;;;;;;8.45;3.53;;;35.80;24.90;;;;;;5093476;28;20113;-79
2023/05/13 08:56:56;;;;;;;4.90;3.38;;;35.70;24.90;;;;;;5091997;28;20103;-79
2023/05/13 08:59:22;;;;;;;15.85;3.83;;;35.50;25.40;;;;;;5093239;28;20115;-80
2023/05/13 09:01:49;;;;;;;10.05;3.28;;;36.20;25.10;;;;;;5093207;28;20158;-79
2023/05/13 09:04:17;;;;;;;5.97;3.05;;;36.50;25.10;;;;;;5084427;28;20051;-78
2023/05/13 09:06:45;;;;;;;14.57;3.67;;;36.90;25.00;;;;;;5076845;28;20374;-80
2023/05/13 09:09:11;;;;;;;8.85;3.35;;;37.00;24.60;;;;;;5086810;28;20020;-81
2023/05/13 09:11:39;;;;;;;6.43;3.50;;;36.40;24.80;;;;;;5093087;28;20028;-80
2023/05/13 09:14:07;;;;;;;11.93;3.05;;;35.60;25.10;;;;;;5091872;28;20024;-81
2023/05/13 09:16:35;;;;;;;14.02;3.55;;;35.20;25.30;;;;;;5093165;28;20350;-81
2023/05/13 09:19:06;;;;;;;7.90;3.20;;;35.10;25.20;;;;;;5088431;28;20380;-80
2023/05/13 09:21:36;;;;;;;8.57;2.80;;;35.00;25.10;;;;;;5091883;28;20111;-80
2023/05/13 09:24:09;;;;;;;7.90;3.15;;;35.60;25.10;;;;;;5086733;28;20086;-80
2023/05/13 09:26:35;;;;;;;14.43;4.32;;;36.20;25.10;;;;;;5075783;28;20028;-81
2023/05/13 09:29:32;;;;;;;9.55;3.17;;;35.50;25.30;;;;;;5086526;28;20020;-80
2023/05/13 09:32:00;;;;;;;7.38;3.17;;;34.80;25.80;;;;;;5084880;28;20016;-79
2023/05/13 09:34:31;;;;;;;7.13;3.42;;;35.30;26.30;;;;;;5076127;28;20016;-78
2023/05/13 09:37:07;;;;;;;7.30;3.15;;;36.30;25.70;;;;;;5073927;28;20028;-80
2023/05/13 09:39:40;;;;;;;7.35;3.42;;;36.50;25.60;;;;;;5092333;28;20059;-81
2023/05/13 09:42:19;;;;;;;7.03;3.15;;;37.10;25.20;;;;;;5092419;28;20032;-79
2023/05/13 09:44:45;;;;;;;5.93;2.92;;;37.40;25.20;;;;;;5090100;28;20111;-81
2023/05/13 09:47:15;;;;;;;8.77;3.78;;;36.90;24.50;;;;;;5093123;28;20019;-80
2023/05/13 09:49:43;;;;;;;4.55;3.17;;;36.00;24.50;;;;;;5092210;28;20042;-78
2023/05/13 09:52:10;;;;;;;5.93;2.78;;;36.00;24.70;;;;;;5085420;28;20354;-79
2023/05/13 09:54:37;;;;;;;8.02;3.28;;;36.20;24.60;;;;;;5091641;28;20078;-78
2023/05/13 09:57:03;;;;;;;8.32;3.17;;;36.30;24.90;;;;;;5077213;28;20024;-80
2023/05/13 09:59:33;;;;;;;9.57;3.20;;;36.50;24.80;;;;;;5075499;28;20182;-79
2023/05/13 10:02:04;;;;;;;13.07;7.57;;;36.30;24.90;;;;;;5092745;28;20074;-79
2023/05/13 10:04:30;;;;;;;14.07;2.97;;;36.00;25.20;;;;;;5088888;28;20020;-77
2023/05/13 10:07:02;;;;;;;8.30;3.17;;;35.40;25.80;;;;;;5061580;28;20144;-79
2023/05/13 10:09:35;;;;;;;5.97;3.20;;;35.50;25.30;;;;;;5092421;28;20403;-79
2023/05/13 10:12:02;;;;;;;8.25;2.80;;;35.40;25.00;;;;;;5090731;28;20051;-79
2023/05/13 10:14:29;;;;;;;5.63;3.20;;;35.00;24.60;;;;;;5072661;28;20093;-78
2023/05/13 10:16:57;;;;;;;12.18;5.32;;;35.00;25.00;;;;;;5082312;28;20033;-79
2023/05/13 10:19:24;;;;;;;9.57;3.13;;;35.30;25.20;;;;;;5074494;28;20035;-80
2023/05/13 10:21:53;;;;;;;6.50;3.13;;;35.50;25.20;;;;;;5095063;28;20024;-81
2023/05/13 10:24:20;;;;;;;12.15;3.30;;;35.40;25.10;;;;;;5089154;28;20092;-87
2023/05/13 10:26:51;;;;;;;15.63;4.50;;;34.30;25.40;;;;;;5059923;28;20031;-84
2023/05/13 10:29:18;;;;;;;5.53;3.08;;;32.50;26.00;;;;;;5090640;28;20081;-88
2023/05/13 10:31:45;;;;;;;7.13;4.10;;;30.60;26.60;;;;;;5071439;28;20055;-85
2023/05/13 10:34:12;;;;;;;9.30;4.03;;;28.80;27.80;;;;;;5103431;28;20024;-84
2023/05/13 10:36:53;;;;;;;11.52;4.38;;;;;;;;;;5112419;28;20473;-85
2023/05/13 10:39:38;;;;;;;8.15;3.17;;;;;;;;;;5103712;28;20047;-84
2023/05/13 10:42:08;;;;;;;7.43;3.80;;;;;;;;;;5091420;28;20024;-89
2023/05/13 10:44:35;;;;;;;6.68;3.47;;;;;;;;;;5092208;28;20027;-83
2023/05/13 10:47:01;;;;;;;9.25;4.03;;;;;;;;;;5102279;28;20020;-87
2023/05/13 10:49:34;;;;;;;7.88;4.25;;;;;;;;;;5098440;28;20634;-86
2023/05/13 10:52:04;;;;;;;11.27;4.13;;;;;;;;;;5093713;28;20031;-85
2023/05/13 10:54:36;;;;;;;6.03;3.50;;;;;;;;;;5075069;28;20036;-87
2023/05/13 10:57:02;;;;;;;16.98;4.45;;;;;;;;;;5094102;28;20016;-82
2023/05/13 10:59:29;;;;;;;9.30;4.15;;;;;;;;;;5102353;28;20062;-90
2023/05/13 11:01:55;;;;;;;5.25;4.32;;;;;;;;;;5097368;28;20016;-84
2023/05/13 11:04:21;;;;;;;7.40;3.67;;;27.50;28.60;;;;;;5088921;28;20052;-86
2023/05/13 11:06:49;;;;;;;5.60;4.13;;;23.80;32.60;;;;;;5060768;28;20049;-86
2023/05/13 11:09:29;;;;;;;7.88;3.88;;;23.30;32.90;;;;;;5093795;28;20366;-85
2023/05/13 11:11:59;;;;;;;10.35;4.10;;;23.10;32.70;;;;;;5098993;28;20068;-84
2023/05/13 11:14:30;;;;;;;9.30;4.13;;;23.00;33.20;;;;;;5079290;28;20156;-85
2023/05/13 11:16:59;;;;;;;9.55;3.90;;;22.90;34.00;;;;;;5069899;28;20169;-85
2023/05/13 11:19:31;;;;;;;9.15;4.05;;;23.00;33.90;;;;;;5085874;28;20040;-84
2023/05/13 11:22:24;;;;;;;5.45;3.88;;;23.00;34.30;;;;;;5090545;28;20020;-85
2023/05/13 11:25:09;;;;;;;8.48;4.03;;;23.00;34.50;;;;;;5090806;28;20044;-82
2023/05/13 11:27:39;;;;;;;7.10;3.60;;;23.10;34.40;;;;;;5089861;28;20059;-80
2023/05/13 11:30:21;;;;;;;9.93;4.07;;;23.00;34.90;;;;;;5100279;28;20024;-81
2023/05/13 11:32:52;;;;;;;7.38;3.53;;;23.10;34.50;;;;;;5104535;28;20031;-84
2023/05/13 11:35:29;;;;;;;6.95;3.90;;;23.20;34.50;;;;;;5102461;28;20027;-79
2023/05/13 11:37:57;;;;;;;7.20;3.65;;;23.20;34.20;;;;;;5104204;28;20030;-81
2023/05/13 11:40:28;;;;;;;6.07;4.20;;;23.10;34.00;;;;;;5087389;28;20069;-81
2023/05/13 11:42:55;;;;;;;6.70;3.67;;;23.10;34.90;;;;;;5108718;28;20020;-81
2023/05/13 11:45:23;;;;;;;6.85;3.67;;;23.10;34.00;;;;;;5104987;28;20373;-80
2023/05/13 11:47:52;;;;;;;8.63;3.60;;;23.10;34.30;;;;;;5109791;28;20024;-82
2023/05/13 11:50:19;;;;;;;11.77;3.35;;;23.10;34.40;;;;;;5104127;28;20020;-80
2023/05/13 11:52:55;;;;;;;;;;;23.10;33.30;;;;;;5100673;28;20512;-80
2023/05/13 11:55:27;;;;;;;8.07;4.93;;;23.00;33.00;;;;;;5104557;28;19904;-80
2023/05/13 11:57:54;;;;;;;9.98;3.40;;;22.90;33.60;;;;;;5109621;28;20081;-80
2023/05/13 12:00:30;;;;;;;;;;;22.90;33.20;;;;;;5105494;28;20031;-80
2023/05/13 12:02:57;;;;;;;8.30;3.63;;;22.90;33.20;;;;;;5073076;28;20395;-79
2023/05/13 12:05:23;;;;;;;8.00;3.13;;;22.80;33.60;;;;;;5099999;28;20031;-78
2023/05/13 12:07:54;;;;;;;9.50;3.60;;;22.80;33.30;;;;;;5094182;28;20066;-78
2023/05/13 12:10:22;;;;;;;6.13;3.22;;;22.80;33.00;;;;;;5093165;28;20024;-80
2023/05/13 12:12:47;;;;;;;;;;;22.90;32.70;;;;;;5096976;28;20500;-81
2023/05/13 12:15:17;;;;;;;9.30;4.28;;;22.80;32.70;;;;;;5092753;28;19950;-80
2023/05/13 12:17:44;;;;;;;8.50;5.03;;;22.80;33.60;;;;;;5108915;28;20048;-81
2023/05/13 12:20:15;;;;;;;5.47;3.67;;;22.80;33.70;;;;;;5111902;28;20035;-80
2023/05/13 12:22:43;;;;;;;5.65;4.45;;;22.80;33.60;;;;;;5109682;28;20031;-79
2023/05/13 12:25:34;;;;;;;3.90;3.38;;;22.80;34.00;;;;;;5111782;28;20022;-81
2023/05/13 12:28:17;;;;;;;4.22;3.10;;;22.70;33.60;;;;;;5111751;28;20024;-82
2023/05/13 12:30:52;;;;;;;8.68;4.63;;;22.70;34.00;;;;;;5118084;28;20023;-80
2023/05/13 12:33:29;;;;;;;7.15;3.47;;;22.70;34.30;;;;;;5089027;28;20072;-79
2023/05/13 12:36:37;;;;;;;11.40;4.18;;;22.70;34.40;;;;;;5111867;28;20032;-82
2023/05/13 12:39:05;;;;;;;11.32;3.92;;;22.70;34.60;;;;;;5022148;28;20069;-79
2023/05/13 12:41:35;;;;;;;5.88;3.35;;;22.80;34.50;;;;;;5025512;28;20021;-82
2023/05/13 12:44:08;;;;;;;11.57;3.30;;;22.80;34.40;;;;;;5028888;28;20033;-82
2023/05/13 12:46:34;;;;;;;7.05;3.08;;;22.70;34.50;;;;;;5026438;28;20037;-81
2023/05/13 12:49:02;;;;;;;7.30;3.90;;;22.80;33.90;;;;;;5030621;28;20167;-80
2023/05/13 12:51:28;;;;;;;16.15;4.35;;;22.80;34.10;;;;;;4997632;28;20025;-79
2023/05/13 12:53:54;;;;;;;11.07;4.17;;;22.80;34.30;;;;;;5014110;28;20029;-81
2023/05/13 12:56:24;;;;;;;9.63;3.58;;;22.90;34.20;;;;;;5016466;28;20042;-78
2023/05/13 12:58:52;;;;;;;7.10;4.03;;;22.90;34.00;;;;;;4997858;28;20104;-79
2023/05/13 13:01:18;;;;;;;7.03;3.10;;;22.90;33.90;;;;;;5015600;28;20498;-78
2023/05/13 13:03:45;;;;;;;8.52;3.38;;;22.90;33.50;;;;;;5014833;28;20026;-80
2023/05/13 13:06:11;;;;;;;9.10;3.78;;;23.00;33.60;;;;;;5013844;28;20180;-80
2023/05/13 13:08:38;;;;;;;7.63;3.33;;;23.00;33.40;;;;;;5004077;28;20577;-78
2023/05/13 13:11:04;;;;;;;8.55;3.58;;;22.90;33.50;;;;;;5081599;28;20103;-80
2023/05/13 13:13:31;;;;;;;6.30;3.80;;;23.00;33.50;;;;;;5110165;28;20083;-78
2023/05/13 13:15:58;;;;;;;5.75;3.20;;;22.90;33.80;;;;;;5107274;28;20515;-81
2023/05/13 13:18:24;;;;;;;6.60;3.15;;;22.90;33.80;;;;;;5110053;28;20071;-80
2023/05/13 13:20:50;;;;;;;9.07;3.75;;;22.90;33.70;;;;;;5090684;28;20028;-80